sensor_id;sensor_type;location;lat;lon;timestamp;P1;durP1;ratioP1;P2;durP2;ratioP2
68089;SDS011;54880;50.986;6.990;2022-08-01T00:00:07;7.80;;;2.20;;
68089;SDS011;54880;50.986;6.990;2022-08-01T00:02:32;6.60;;;2.15;;
68089;SDS011;54880;50.986;6.990;2022-08-01T00:04:58;6.40;;;2.00;;
68089;SDS011;54880;50.986;6.990;2022-08-01T00:07:23;6.43;;;2.30;;
68089;SDS011;54880;50.986;6.990;2022-08-01T00:09:48;6.63;;;2.20;;
68089;SDS011;54880;50.986;6.990;2022-08-01T00:12:13;5.43;;;1.93;;
68089;SDS011;54880;50.986;6.990;2022-08-01T00:14:39;7.03;;;2.00;;
68089;SDS011;54880;50.986;6.990;2022-08-01T00:17:04;5.00;;;1.97;;
68089;SDS011;54880;50.986;6.990;2022-08-01T00:19:30;5.97;;;1.80;;
68089;SDS011;54880;50.986;6.990;2022-08-01T00:21:55;5.40;;;1.83;;
68089;SDS011;54880;50.986;6.990;2022-08-01T00:24:20;5.47;;;1.73;;
68089;SDS011;54880;50.986;6.990;2022-08-01T00:26:45;6.30;;;2.10;;
68089;SDS011;54880;50.986;6.990;2022-08-01T00:29:11;7.50;;;2.10;;
68089;SDS011;54880;50.986;6.990;2022-08-01T00:31:36;6.33;;;2.10;;
68089;SDS011;54880;50.986;6.990;2022-08-01T00:34:02;6.53;;;2.13;;
68089;SDS011;54880;50.986;6.990;2022-08-01T00:36:27;4.97;;;2.03;;
68089;SDS011;54880;50.986;6.990;2022-08-01T00:38:52;5.77;;;2.27;;
68089;SDS011;54880;50.986;6.990;2022-08-01T00:41:17;6.60;;;2.60;;
68089;SDS011;54880;50.986;6.990;2022-08-01T00:43:43;5.93;;;2.20;;
68089;SDS011;54880;50.986;6.990;2022-08-01T00:46:08;5.60;;;2.50;;
68089;SDS011;54880;50.986;6.990;2022-08-01T00:48:33;9.23;;;2.20;;
68089;SDS011;54880;50.986;6.990;2022-08-01T00:50:59;6.30;;;2.60;;
68089;SDS011;54880;50.986;6.990;2022-08-01T00:53:24;6.27;;;2.33;;
68089;SDS011;54880;50.986;6.990;2022-08-01T00:55:50;5.20;;;2.07;;
68089;SDS011;54880;50.986;6.990;2022-08-01T00:58:15;6.95;;;2.20;;
68089;SDS011;54880;50.986;6.990;2022-08-01T01:00:40;5.57;;;2.23;;
68089;SDS011;54880;50.986;6.990;2022-08-01T01:03:06;7.10;;;2.47;;
68089;SDS011;54880;50.986;6.990;2022-08-01T01:05:32;11.60;;;2.40;;
68089;SDS011;54880;50.986;6.990;2022-08-01T01:08:04;6.65;;;2.30;;
68089;SDS011;54880;50.986;6.990;2022-08-01T01:10:37;6.15;;;2.30;;
68089;SDS011;54880;50.986;6.990;2022-08-01T01:13:06;7.00;;;2.47;;
68089;SDS011;54880;50.986;6.990;2022-08-01T01:15:37;5.47;;;2.50;;
68089;SDS011;54880;50.986;6.990;2022-08-01T01:18:07;7.00;;;2.38;;
68089;SDS011;54880;50.986;6.990;2022-08-01T01:20:35;7.72;;;2.60;;
68089;SDS011;54880;50.986;6.990;2022-08-01T01:25:49;9.33;;;2.40;;
68089;SDS011;54880;50.986;6.990;2022-08-01T01:30:44;6.43;;;2.53;;
68089;SDS011;54880;50.986;6.990;2022-08-01T01:33:11;6.90;;;2.80;;
68089;SDS011;54880;50.986;6.990;2022-08-01T01:35:38;8.15;;;3.00;;
68089;SDS011;54880;50.986;6.990;2022-08-01T01:38:28;7.03;;;3.10;;
68089;SDS011;54880;50.986;6.990;2022-08-01T01:40:52;9.05;;;2.78;;
68089;SDS011;54880;50.986;6.990;2022-08-01T01:43:18;6.72;;;2.88;;
68089;SDS011;54880;50.986;6.990;2022-08-01T01:45:45;7.55;;;2.72;;
68089;SDS011;54880;50.986;6.990;2022-08-01T01:48:17;6.63;;;3.00;;
68089;SDS011;54880;50.986;6.990;2022-08-01T01:50:43;7.20;;;3.20;;
68089;SDS011;54880;50.986;6.990;2022-08-01T01:53:09;7.82;;;2.90;;
68089;SDS011;54880;50.986;6.990;2022-08-01T01:55:38;6.35;;;2.88;;
68089;SDS011;54880;50.986;6.990;2022-08-01T01:58:04;7.25;;;2.67;;
68089;SDS011;54880;50.986;6.990;2022-08-01T02:00:30;6.85;;;3.15;;
68089;SDS011;54880;50.986;6.990;2022-08-01T02:02:55;8.20;;;3.07;;
68089;SDS011;54880;50.986;6.990;2022-08-01T02:05:21;6.38;;;2.80;;
68089;SDS011;54880;50.986;6.990;2022-08-01T02:07:47;7.85;;;2.85;;
68089;SDS011;54880;50.986;6.990;2022-08-01T02:10:14;8.67;;;3.07;;
68089;SDS011;54880;50.986;6.990;2022-08-01T02:12:41;8.15;;;3.10;;
68089;SDS011;54880;50.986;6.990;2022-08-01T02:15:08;8.55;;;3.50;;
68089;SDS011;54880;50.986;6.990;2022-08-01T02:17:36;9.48;;;2.60;;
68089;SDS011;54880;50.986;6.990;2022-08-01T02:20:02;8.82;;;3.10;;
68089;SDS011;54880;50.986;6.990;2022-08-01T02:22:36;9.50;;;3.00;;
68089;SDS011;54880;50.986;6.990;2022-08-01T02:25:05;9.02;;;3.05;;
68089;SDS011;54880;50.986;6.990;2022-08-01T02:27:34;9.37;;;3.00;;
68089;SDS011;54880;50.986;6.990;2022-08-01T02:30:04;14.05;;;3.13;;
68089;SDS011;54880;50.986;6.990;2022-08-01T02:32:36;8.18;;;3.13;;
68089;SDS011;54880;50.986;6.990;2022-08-01T02:35:03;8.88;;;3.35;;
68089;SDS011;54880;50.986;6.990;2022-08-01T02:37:33;9.30;;;3.13;;
68089;SDS011;54880;50.986;6.990;2022-08-01T02:39:59;9.30;;;3.03;;
68089;SDS011;54880;50.986;6.990;2022-08-01T02:42:24;8.48;;;3.08;;
68089;SDS011;54880;50.986;6.990;2022-08-01T02:44:51;6.90;;;2.95;;
68089;SDS011;54880;50.986;6.990;2022-08-01T02:47:18;8.17;;;3.23;;
68089;SDS011;54880;50.986;6.990;2022-08-01T02:49:45;8.88;;;3.80;;
68089;SDS011;54880;50.986;6.990;2022-08-01T02:52:12;8.55;;;3.45;;
68089;SDS011;54880;50.986;6.990;2022-08-01T02:54:38;7.68;;;3.30;;
68089;SDS011;54880;50.986;6.990;2022-08-01T02:57:06;7.90;;;2.93;;
68089;SDS011;54880;50.986;6.990;2022-08-01T02:59:32;8.93;;;3.03;;
68089;SDS011;54880;50.986;6.990;2022-08-01T03:01:59;9.60;;;3.37;;
68089;SDS011;54880;50.986;6.990;2022-08-01T03:04:25;8.73;;;3.13;;
68089;SDS011;54880;50.986;6.990;2022-08-01T03:06:51;7.78;;;3.28;;
68089;SDS011;54880;50.986;6.990;2022-08-01T03:09:17;7.68;;;3.72;;
68089;SDS011;54880;50.986;6.990;2022-08-01T03:11:44;10.10;;;3.33;;
68089;SDS011;54880;50.986;6.990;2022-08-01T03:14:11;8.90;;;3.23;;
68089;SDS011;54880;50.986;6.990;2022-08-01T03:16:38;8.40;;;3.50;;
68089;SDS011;54880;50.986;6.990;2022-08-01T03:19:03;8.98;;;3.50;;
68089;SDS011;54880;50.986;6.990;2022-08-01T03:21:29;8.70;;;3.30;;
68089;SDS011;54880;50.986;6.990;2022-08-01T03:23:56;8.20;;;3.40;;
68089;SDS011;54880;50.986;6.990;2022-08-01T03:26:24;9.55;;;3.35;;
68089;SDS011;54880;50.986;6.990;2022-08-01T03:28:51;8.57;;;3.33;;
68089;SDS011;54880;50.986;6.990;2022-08-01T03:31:17;9.07;;;3.35;;
68089;SDS011;54880;50.986;6.990;2022-08-01T03:33:43;7.57;;;3.60;;
68089;SDS011;54880;50.986;6.990;2022-08-01T03:36:09;8.57;;;3.63;;
68089;SDS011;54880;50.986;6.990;2022-08-01T03:38:34;13.10;;;4.10;;
68089;SDS011;54880;50.986;6.990;2022-08-01T03:41:05;10.00;;;3.58;;
68089;SDS011;54880;50.986;6.990;2022-08-01T03:43:35;7.43;;;3.53;;
68089;SDS011;54880;50.986;6.990;2022-08-01T03:46:04;8.18;;;3.67;;
68089;SDS011;54880;50.986;6.990;2022-08-01T03:48:33;9.67;;;3.90;;
68089;SDS011;54880;50.986;6.990;2022-08-01T03:51:01;11.02;;;3.83;;
68089;SDS011;54880;50.986;6.990;2022-08-01T03:53:28;8.63;;;3.73;;
68089;SDS011;54880;50.986;6.990;2022-08-01T03:55:54;10.55;;;4.47;;
68089;SDS011;54880;50.986;6.990;2022-08-01T03:58:20;9.10;;;4.40;;
68089;SDS011;54880;50.986;6.990;2022-08-01T04:00:46;11.47;;;4.40;;
68089;SDS011;54880;50.986;6.990;2022-08-01T04:03:12;8.23;;;3.67;;
68089;SDS011;54880;50.986;6.990;2022-08-01T04:05:40;12.37;;;4.23;;
68089;SDS011;54880;50.986;6.990;2022-08-01T04:08:05;8.80;;;4.40;;
68089;SDS011;54880;50.986;6.990;2022-08-01T04:10:31;9.67;;;4.13;;
68089;SDS011;54880;50.986;6.990;2022-08-01T04:12:56;8.07;;;4.00;;
68089;SDS011;54880;50.986;6.990;2022-08-01T04:15:21;8.40;;;3.57;;
68089;SDS011;54880;50.986;6.990;2022-08-01T04:17:46;13.13;;;4.33;;
68089;SDS011;54880;50.986;6.990;2022-08-01T04:20:12;12.00;;;3.90;;
68089;SDS011;54880;50.986;6.990;2022-08-01T04:22:38;9.53;;;4.07;;
68089;SDS011;54880;50.986;6.990;2022-08-01T04:25:04;8.82;;;4.15;;
68089;SDS011;54880;50.986;6.990;2022-08-01T04:27:35;9.02;;;3.80;;
68089;SDS011;54880;50.986;6.990;2022-08-01T04:30:02;9.00;;;3.90;;
68089;SDS011;54880;50.986;6.990;2022-08-01T04:32:28;10.10;;;4.60;;
68089;SDS011;54880;50.986;6.990;2022-08-01T04:34:55;11.20;;;4.90;;
68089;SDS011;54880;50.986;6.990;2022-08-01T04:37:22;13.20;;;4.70;;
68089;SDS011;54880;50.986;6.990;2022-08-01T04:39:48;12.38;;;4.97;;
68089;SDS011;54880;50.986;6.990;2022-08-01T04:42:16;11.68;;;5.20;;
68089;SDS011;54880;50.986;6.990;2022-08-01T04:44:41;11.47;;;4.87;;
68089;SDS011;54880;50.986;6.990;2022-08-01T04:47:06;10.97;;;4.87;;
68089;SDS011;54880;50.986;6.990;2022-08-01T04:49:33;10.32;;;4.43;;
68089;SDS011;54880;50.986;6.990;2022-08-01T04:51:58;10.75;;;4.68;;
68089;SDS011;54880;50.986;6.990;2022-08-01T04:54:27;9.80;;;4.85;;
68089;SDS011;54880;50.986;6.990;2022-08-01T04:56:53;10.85;;;5.30;;
68089;SDS011;54880;50.986;6.990;2022-08-01T04:59:23;11.65;;;6.15;;
68089;SDS011;54880;50.986;6.990;2022-08-01T05:02:11;12.10;;;6.25;;
68089;SDS011;54880;50.986;6.990;2022-08-01T05:04:36;12.07;;;5.88;;
68089;SDS011;54880;50.986;6.990;2022-08-01T05:07:02;14.82;;;6.30;;
68089;SDS011;54880;50.986;6.990;2022-08-01T05:09:28;14.02;;;6.22;;
68089;SDS011;54880;50.986;6.990;2022-08-01T05:11:53;12.47;;;6.30;;
68089;SDS011;54880;50.986;6.990;2022-08-01T05:14:18;15.00;;;6.80;;
68089;SDS011;54880;50.986;6.990;2022-08-01T05:16:44;17.40;;;6.80;;
68089;SDS011;54880;50.986;6.990;2022-08-01T05:19:09;18.30;;;8.00;;
68089;SDS011;54880;50.986;6.990;2022-08-01T05:21:35;14.97;;;7.10;;
68089;SDS011;54880;50.986;6.990;2022-08-01T05:24:00;14.23;;;7.40;;
68089;SDS011;54880;50.986;6.990;2022-08-01T05:26:25;15.80;;;7.80;;
68089;SDS011;54880;50.986;6.990;2022-08-01T05:28:51;15.30;;;7.13;;
68089;SDS011;54880;50.986;6.990;2022-08-01T05:31:16;16.80;;;7.87;;
68089;SDS011;54880;50.986;6.990;2022-08-01T05:33:44;14.02;;;7.18;;
68089;SDS011;54880;50.986;6.990;2022-08-01T05:36:09;16.20;;;8.03;;
68089;SDS011;54880;50.986;6.990;2022-08-01T05:38:34;17.83;;;9.13;;
68089;SDS011;54880;50.986;6.990;2022-08-01T05:41:00;19.90;;;10.13;;
68089;SDS011;54880;50.986;6.990;2022-08-01T05:43:25;25.57;;;9.70;;
68089;SDS011;54880;50.986;6.990;2022-08-01T05:45:53;18.53;;;9.53;;
68089;SDS011;54880;50.986;6.990;2022-08-01T05:48:18;21.27;;;10.43;;
68089;SDS011;54880;50.986;6.990;2022-08-01T05:50:43;20.23;;;10.40;;
68089;SDS011;54880;50.986;6.990;2022-08-01T05:53:08;21.73;;;10.83;;
68089;SDS011;54880;50.986;6.990;2022-08-01T05:55:34;22.10;;;10.83;;
68089;SDS011;54880;50.986;6.990;2022-08-01T05:58:00;19.90;;;10.18;;
68089;SDS011;54880;50.986;6.990;2022-08-01T06:00:25;18.97;;;11.37;;
68089;SDS011;54880;50.986;6.990;2022-08-01T06:02:50;18.27;;;11.20;;
68089;SDS011;54880;50.986;6.990;2022-08-01T06:05:16;20.27;;;10.70;;
68089;SDS011;54880;50.986;6.990;2022-08-01T06:07:41;19.47;;;9.70;;
68089;SDS011;54880;50.986;6.990;2022-08-01T06:10:07;22.75;;;10.63;;
68089;SDS011;54880;50.986;6.990;2022-08-01T06:12:33;17.47;;;10.27;;
68089;SDS011;54880;50.986;6.990;2022-08-01T06:14:58;19.02;;;10.45;;
68089;SDS011;54880;50.986;6.990;2022-08-01T06:17:24;17.97;;;10.43;;
68089;SDS011;54880;50.986;6.990;2022-08-01T06:19:52;21.83;;;10.48;;
68089;SDS011;54880;50.986;6.990;2022-08-01T06:22:17;22.80;;;10.53;;
68089;SDS011;54880;50.986;6.990;2022-08-01T06:24:42;17.70;;;10.27;;
68089;SDS011;54880;50.986;6.990;2022-08-01T06:27:07;19.07;;;10.00;;
68089;SDS011;54880;50.986;6.990;2022-08-01T06:29:33;17.33;;;9.60;;
68089;SDS011;54880;50.986;6.990;2022-08-01T06:31:59;19.42;;;10.15;;
68089;SDS011;54880;50.986;6.990;2022-08-01T06:34:25;17.67;;;9.20;;
68089;SDS011;54880;50.986;6.990;2022-08-01T06:36:50;17.77;;;9.83;;
68089;SDS011;54880;50.986;6.990;2022-08-01T06:39:15;18.63;;;10.43;;
68089;SDS011;54880;50.986;6.990;2022-08-01T06:41:43;17.90;;;10.03;;
68089;SDS011;54880;50.986;6.990;2022-08-01T06:44:12;19.67;;;9.93;;
68089;SDS011;54880;50.986;6.990;2022-08-01T06:46:37;18.33;;;9.00;;
68089;SDS011;54880;50.986;6.990;2022-08-01T06:49:03;15.57;;;9.17;;
68089;SDS011;54880;50.986;6.990;2022-08-01T06:51:28;15.90;;;9.10;;
68089;SDS011;54880;50.986;6.990;2022-08-01T06:53:53;15.60;;;8.67;;
68089;SDS011;54880;50.986;6.990;2022-08-01T06:56:19;17.20;;;8.90;;
68089;SDS011;54880;50.986;6.990;2022-08-01T06:58:44;14.43;;;8.20;;
68089;SDS011;54880;50.986;6.990;2022-08-01T07:01:09;14.07;;;8.70;;
68089;SDS011;54880;50.986;6.990;2022-08-01T07:03:35;15.10;;;8.70;;
68089;SDS011;54880;50.986;6.990;2022-08-01T07:06:00;14.95;;;8.77;;
68089;SDS011;54880;50.986;6.990;2022-08-01T07:08:25;13.27;;;8.30;;
68089;SDS011;54880;50.986;6.990;2022-08-01T07:10:51;14.93;;;7.93;;
68089;SDS011;54880;50.986;6.990;2022-08-01T07:13:16;12.63;;;7.57;;
68089;SDS011;54880;50.986;6.990;2022-08-01T07:15:48;14.73;;;7.10;;
68089;SDS011;54880;50.986;6.990;2022-08-01T07:18:13;14.68;;;8.52;;
68089;SDS011;54880;50.986;6.990;2022-08-01T07:20:38;15.68;;;7.97;;
68089;SDS011;54880;50.986;6.990;2022-08-01T07:23:04;13.57;;;7.78;;
68089;SDS011;54880;50.986;6.990;2022-08-01T07:25:29;13.30;;;7.97;;
68089;SDS011;54880;50.986;6.990;2022-08-01T07:27:54;13.67;;;7.50;;
68089;SDS011;54880;50.986;6.990;2022-08-01T07:30:20;13.13;;;8.27;;
68089;SDS011;54880;50.986;6.990;2022-08-01T07:32:45;12.63;;;8.43;;
68089;SDS011;54880;50.986;6.990;2022-08-01T07:35:10;13.63;;;7.50;;
68089;SDS011;54880;50.986;6.990;2022-08-01T07:37:36;13.23;;;7.70;;
68089;SDS011;54880;50.986;6.990;2022-08-01T07:40:01;14.13;;;7.82;;
68089;SDS011;54880;50.986;6.990;2022-08-01T07:42:29;13.48;;;7.25;;
68089;SDS011;54880;50.986;6.990;2022-08-01T07:44:54;11.63;;;7.30;;
68089;SDS011;54880;50.986;6.990;2022-08-01T07:47:23;13.27;;;7.57;;
68089;SDS011;54880;50.986;6.990;2022-08-01T07:49:49;11.75;;;6.97;;
68089;SDS011;54880;50.986;6.990;2022-08-01T07:52:14;13.60;;;8.07;;
68089;SDS011;54880;50.986;6.990;2022-08-01T07:54:39;15.53;;;7.90;;
68089;SDS011;54880;50.986;6.990;2022-08-01T07:57:05;15.23;;;7.83;;
68089;SDS011;54880;50.986;6.990;2022-08-01T07:59:30;12.03;;;7.20;;
68089;SDS011;54880;50.986;6.990;2022-08-01T08:01:55;12.97;;;7.30;;
68089;SDS011;54880;50.986;6.990;2022-08-01T08:04:20;13.37;;;7.90;;
68089;SDS011;54880;50.986;6.990;2022-08-01T08:06:46;14.47;;;7.57;;
68089;SDS011;54880;50.986;6.990;2022-08-01T08:09:12;14.32;;;8.00;;
68089;SDS011;54880;50.986;6.990;2022-08-01T08:11:38;13.37;;;7.53;;
68089;SDS011;54880;50.986;6.990;2022-08-01T08:14:03;13.87;;;7.33;;
68089;SDS011;54880;50.986;6.990;2022-08-01T08:16:28;12.03;;;7.30;;
68089;SDS011;54880;50.986;6.990;2022-08-01T08:18:53;11.37;;;7.07;;
68089;SDS011;54880;50.986;6.990;2022-08-01T08:21:21;12.93;;;7.27;;
68089;SDS011;54880;50.986;6.990;2022-08-01T08:23:51;14.30;;;7.32;;
68089;SDS011;54880;50.986;6.990;2022-08-01T08:26:35;12.27;;;7.50;;
68089;SDS011;54880;50.986;6.990;2022-08-01T08:29:02;16.55;;;6.53;;
68089;SDS011;54880;50.986;6.990;2022-08-01T08:31:27;12.70;;;6.10;;
68089;SDS011;54880;50.986;6.990;2022-08-01T08:33:53;9.47;;;5.03;;
68089;SDS011;54880;50.986;6.990;2022-08-01T08:36:18;8.17;;;4.33;;
68089;SDS011;54880;50.986;6.990;2022-08-01T08:38:43;8.97;;;4.60;;
68089;SDS011;54880;50.986;6.990;2022-08-01T08:41:11;9.43;;;4.77;;
68089;SDS011;54880;50.986;6.990;2022-08-01T08:43:39;9.05;;;4.70;;
68089;SDS011;54880;50.986;6.990;2022-08-01T08:46:05;10.13;;;4.40;;
68089;SDS011;54880;50.986;6.990;2022-08-01T08:48:32;9.00;;;4.80;;
68089;SDS011;54880;50.986;6.990;2022-08-01T08:50:58;8.80;;;4.55;;
68089;SDS011;54880;50.986;6.990;2022-08-01T08:53:25;11.55;;;4.80;;
68089;SDS011;54880;50.986;6.990;2022-08-01T08:55:54;9.77;;;5.13;;
68089;SDS011;54880;50.986;6.990;2022-08-01T08:58:21;7.63;;;4.22;;
68089;SDS011;54880;50.986;6.990;2022-08-01T09:00:47;10.37;;;4.90;;
68089;SDS011;54880;50.986;6.990;2022-08-01T09:03:12;8.95;;;4.13;;
68089;SDS011;54880;50.986;6.990;2022-08-01T09:05:42;9.60;;;4.60;;
68089;SDS011;54880;50.986;6.990;2022-08-01T09:08:11;8.52;;;4.63;;
68089;SDS011;54880;50.986;6.990;2022-08-01T09:10:37;8.63;;;4.23;;
68089;SDS011;54880;50.986;6.990;2022-08-01T09:13:06;8.50;;;4.30;;
68089;SDS011;54880;50.986;6.990;2022-08-01T09:18:03;8.80;;;4.85;;
68089;SDS011;54880;50.986;6.990;2022-08-01T09:20:28;10.10;;;4.60;;
68089;SDS011;54880;50.986;6.990;2022-08-01T09:22:54;9.93;;;4.77;;
68089;SDS011;54880;50.986;6.990;2022-08-01T09:25:19;9.40;;;5.17;;
68089;SDS011;54880;50.986;6.990;2022-08-01T09:27:44;9.97;;;4.67;;
68089;SDS011;54880;50.986;6.990;2022-08-01T09:32:58;8.70;;;4.20;;
68089;SDS011;54880;50.986;6.990;2022-08-01T09:35:29;7.97;;;4.35;;
68089;SDS011;54880;50.986;6.990;2022-08-01T09:38:16;8.05;;;4.00;;
68089;SDS011;54880;50.986;6.990;2022-08-01T09:43:11;8.20;;;4.05;;
68089;SDS011;54880;50.986;6.990;2022-08-01T09:45:39;9.20;;;4.43;;
68089;SDS011;54880;50.986;6.990;2022-08-01T09:48:10;7.53;;;3.97;;
68089;SDS011;54880;50.986;6.990;2022-08-01T09:50:45;7.88;;;3.70;;
68089;SDS011;54880;50.986;6.990;2022-08-01T09:53:11;7.93;;;4.28;;
68089;SDS011;54880;50.986;6.990;2022-08-01T09:55:39;7.35;;;4.05;;
68089;SDS011;54880;50.986;6.990;2022-08-01T09:58:08;7.20;;;4.03;;
68089;SDS011;54880;50.986;6.990;2022-08-01T10:00:34;9.27;;;4.22;;
68089;SDS011;54880;50.986;6.990;2022-08-01T10:02:59;8.33;;;4.47;;
68089;SDS011;54880;50.986;6.990;2022-08-01T10:05:34;8.18;;;4.50;;
68089;SDS011;54880;50.986;6.990;2022-08-01T10:08:02;7.60;;;4.90;;
68089;SDS011;54880;50.986;6.990;2022-08-01T10:10:31;7.27;;;4.20;;
68089;SDS011;54880;50.986;6.990;2022-08-01T10:12:57;8.52;;;4.18;;
68089;SDS011;54880;50.986;6.990;2022-08-01T10:15:26;13.35;;;4.97;;
68089;SDS011;54880;50.986;6.990;2022-08-01T10:17:58;7.35;;;4.43;;
68089;SDS011;54880;50.986;6.990;2022-08-01T10:20:25;7.45;;;3.78;;
68089;SDS011;54880;50.986;6.990;2022-08-01T10:22:58;7.35;;;3.97;;
68089;SDS011;54880;50.986;6.990;2022-08-01T10:25:23;7.32;;;4.05;;
68089;SDS011;54880;50.986;6.990;2022-08-01T10:27:49;7.73;;;4.33;;
68089;SDS011;54880;50.986;6.990;2022-08-01T10:30:17;10.85;;;4.53;;
68089;SDS011;54880;50.986;6.990;2022-08-01T10:32:42;7.97;;;3.93;;
68089;SDS011;54880;50.986;6.990;2022-08-01T10:35:10;7.85;;;3.70;;
68089;SDS011;54880;50.986;6.990;2022-08-01T10:37:42;8.02;;;4.13;;
68089;SDS011;54880;50.986;6.990;2022-08-01T10:40:08;10.30;;;3.97;;
68089;SDS011;54880;50.986;6.990;2022-08-01T10:42:33;7.80;;;4.40;;
68089;SDS011;54880;50.986;6.990;2022-08-01T10:44:59;9.07;;;3.90;;
68089;SDS011;54880;50.986;6.990;2022-08-01T10:47:25;7.00;;;3.60;;
68089;SDS011;54880;50.986;6.990;2022-08-01T10:49:56;8.15;;;3.70;;
68089;SDS011;54880;50.986;6.990;2022-08-01T10:52:25;7.07;;;3.30;;
68089;SDS011;54880;50.986;6.990;2022-08-01T10:55:00;8.33;;;3.20;;
68089;SDS011;54880;50.986;6.990;2022-08-01T10:57:40;7.00;;;3.27;;
68089;SDS011;54880;50.986;6.990;2022-08-01T11:00:14;9.55;;;3.65;;
68089;SDS011;54880;50.986;6.990;2022-08-01T11:03:10;8.25;;;3.70;;
68089;SDS011;54880;50.986;6.990;2022-08-01T11:05:35;6.80;;;3.50;;
68089;SDS011;54880;50.986;6.990;2022-08-01T11:08:12;7.15;;;3.38;;
68089;SDS011;54880;50.986;6.990;2022-08-01T11:10:45;7.40;;;3.00;;
68089;SDS011;54880;50.986;6.990;2022-08-01T11:13:12;8.57;;;3.47;;
68089;SDS011;54880;50.986;6.990;2022-08-01T11:15:38;6.73;;;3.27;;
68089;SDS011;54880;50.986;6.990;2022-08-01T11:18:29;9.20;;;3.65;;
68089;SDS011;54880;50.986;6.990;2022-08-01T11:20:56;6.45;;;3.53;;
68089;SDS011;54880;50.986;6.990;2022-08-01T11:23:22;6.37;;;3.20;;
68089;SDS011;54880;50.986;6.990;2022-08-01T11:30:39;7.10;;;3.20;;
68089;SDS011;54880;50.986;6.990;2022-08-01T11:33:04;6.40;;;3.25;;
68089;SDS011;54880;50.986;6.990;2022-08-01T11:35:31;8.73;;;3.42;;
68089;SDS011;54880;50.986;6.990;2022-08-01T11:37:57;7.90;;;3.43;;
68089;SDS011;54880;50.986;6.990;2022-08-01T11:40:42;9.00;;;3.60;;
68089;SDS011;54880;50.986;6.990;2022-08-01T11:43:17;8.00;;;3.73;;
68089;SDS011;54880;50.986;6.990;2022-08-01T11:45:53;8.07;;;4.20;;
68089;SDS011;54880;50.986;6.990;2022-08-01T11:48:23;10.00;;;3.65;;
68089;SDS011;54880;50.986;6.990;2022-08-01T11:50:52;10.90;;;3.80;;
68089;SDS011;54880;50.986;6.990;2022-08-01T11:53:18;10.88;;;3.90;;
68089;SDS011;54880;50.986;6.990;2022-08-01T11:55:48;6.90;;;3.30;;
68089;SDS011;54880;50.986;6.990;2022-08-01T11:58:16;6.93;;;3.53;;
68089;SDS011;54880;50.986;6.990;2022-08-01T12:00:49;6.88;;;3.13;;
68089;SDS011;54880;50.986;6.990;2022-08-01T12:03:15;6.50;;;3.00;;
68089;SDS011;54880;50.986;6.990;2022-08-01T12:05:40;6.93;;;3.30;;
68089;SDS011;54880;50.986;6.990;2022-08-01T12:08:09;7.35;;;3.22;;
68089;SDS011;54880;50.986;6.990;2022-08-01T12:10:34;7.43;;;3.30;;
68089;SDS011;54880;50.986;6.990;2022-08-01T12:13:04;6.88;;;3.30;;
68089;SDS011;54880;50.986;6.990;2022-08-01T12:15:33;9.50;;;3.47;;
68089;SDS011;54880;50.986;6.990;2022-08-01T12:18:02;7.97;;;3.10;;
68089;SDS011;54880;50.986;6.990;2022-08-01T12:20:45;7.43;;;2.53;;
68089;SDS011;54880;50.986;6.990;2022-08-01T12:24:00;6.40;;;2.80;;
68089;SDS011;54880;50.986;6.990;2022-08-01T12:26:40;7.25;;;2.58;;
68089;SDS011;54880;50.986;6.990;2022-08-01T12:29:16;7.28;;;2.88;;
68089;SDS011;54880;50.986;6.990;2022-08-01T12:34:54;7.05;;;2.67;;
68089;SDS011;54880;50.986;6.990;2022-08-01T12:38:01;6.32;;;2.22;;
68089;SDS011;54880;50.986;6.990;2022-08-01T12:40:33;5.60;;;2.55;;
68089;SDS011;54880;50.986;6.990;2022-08-01T12:43:00;5.32;;;2.70;;
68089;SDS011;54880;50.986;6.990;2022-08-01T12:45:27;7.50;;;2.97;;
68089;SDS011;54880;50.986;6.990;2022-08-01T12:47:56;7.10;;;2.60;;
68089;SDS011;54880;50.986;6.990;2022-08-01T12:50:32;6.40;;;2.60;;
68089;SDS011;54880;50.986;6.990;2022-08-01T12:52:58;7.20;;;2.70;;
68089;SDS011;54880;50.986;6.990;2022-08-01T12:55:29;6.07;;;2.13;;
68089;SDS011;54880;50.986;6.990;2022-08-01T12:58:07;6.03;;;2.35;;
68089;SDS011;54880;50.986;6.990;2022-08-01T13:00:34;6.90;;;2.15;;
68089;SDS011;54880;50.986;6.990;2022-08-01T13:05:28;5.53;;;1.95;;
68089;SDS011;54880;50.986;6.990;2022-08-01T13:08:11;6.10;;;2.20;;
68089;SDS011;54880;50.986;6.990;2022-08-01T13:10:37;6.53;;;1.90;;
68089;SDS011;54880;50.986;6.990;2022-08-01T13:13:03;6.10;;;1.87;;
68089;SDS011;54880;50.986;6.990;2022-08-01T13:15:30;4.60;;;1.77;;
68089;SDS011;54880;50.986;6.990;2022-08-01T13:18:00;4.80;;;1.48;;
68089;SDS011;54880;50.986;6.990;2022-08-01T13:20:32;4.50;;;1.37;;
68089;SDS011;54880;50.986;6.990;2022-08-01T13:23:12;4.93;;;1.60;;
68089;SDS011;54880;50.986;6.990;2022-08-01T13:25:56;7.20;;;1.88;;
68089;SDS011;54880;50.986;6.990;2022-08-01T13:28:22;5.38;;;1.52;;
68089;SDS011;54880;50.986;6.990;2022-08-01T13:30:51;5.38;;;1.90;;
68089;SDS011;54880;50.986;6.990;2022-08-01T13:33:17;4.03;;;1.20;;
68089;SDS011;54880;50.986;6.990;2022-08-01T13:35:42;5.22;;;1.70;;
68089;SDS011;54880;50.986;6.990;2022-08-01T13:38:08;6.53;;;1.47;;
68089;SDS011;54880;50.986;6.990;2022-08-01T13:40:33;3.97;;;1.30;;
68089;SDS011;54880;50.986;6.990;2022-08-01T13:42:58;4.80;;;1.53;;
68089;SDS011;54880;50.986;6.990;2022-08-01T13:45:23;5.10;;;1.60;;
68089;SDS011;54880;50.986;6.990;2022-08-01T13:47:49;4.20;;;1.50;;
68089;SDS011;54880;50.986;6.990;2022-08-01T13:50:14;6.13;;;1.70;;
68089;SDS011;54880;50.986;6.990;2022-08-01T13:52:39;5.40;;;1.67;;
68089;SDS011;54880;50.986;6.990;2022-08-01T13:55:05;5.88;;;1.70;;
68089;SDS011;54880;50.986;6.990;2022-08-01T13:57:30;4.47;;;1.53;;
68089;SDS011;54880;50.986;6.990;2022-08-01T13:59:56;6.43;;;1.53;;
68089;SDS011;54880;50.986;6.990;2022-08-01T14:02:24;4.50;;;1.50;;
68089;SDS011;54880;50.986;6.990;2022-08-01T14:04:50;4.73;;;1.73;;
68089;SDS011;54880;50.986;6.990;2022-08-01T14:07:15;4.17;;;1.50;;
68089;SDS011;54880;50.986;6.990;2022-08-01T14:09:41;4.73;;;1.57;;
68089;SDS011;54880;50.986;6.990;2022-08-01T14:12:07;5.07;;;1.40;;
68089;SDS011;54880;50.986;6.990;2022-08-01T14:14:32;4.17;;;1.40;;
68089;SDS011;54880;50.986;6.990;2022-08-01T14:16:57;4.83;;;1.23;;
68089;SDS011;54880;50.986;6.990;2022-08-01T14:19:26;6.67;;;1.90;;
68089;SDS011;54880;50.986;6.990;2022-08-01T14:21:51;5.25;;;1.60;;
68089;SDS011;54880;50.986;6.990;2022-08-01T14:24:17;4.45;;;1.58;;
68089;SDS011;54880;50.986;6.990;2022-08-01T14:26:42;4.90;;;1.70;;
68089;SDS011;54880;50.986;6.990;2022-08-01T14:29:11;6.20;;;1.60;;
68089;SDS011;54880;50.986;6.990;2022-08-01T14:31:36;4.78;;;1.70;;
68089;SDS011;54880;50.986;6.990;2022-08-01T14:34:01;7.13;;;1.60;;
68089;SDS011;54880;50.986;6.990;2022-08-01T14:36:27;5.03;;;1.40;;
68089;SDS011;54880;50.986;6.990;2022-08-01T14:38:52;4.47;;;1.40;;
68089;SDS011;54880;50.986;6.990;2022-08-01T14:41:18;4.80;;;1.40;;
68089;SDS011;54880;50.986;6.990;2022-08-01T14:43:45;4.43;;;1.33;;
68089;SDS011;54880;50.986;6.990;2022-08-01T14:46:11;4.50;;;1.70;;
68089;SDS011;54880;50.986;6.990;2022-08-01T14:48:37;6.47;;;1.67;;
68089;SDS011;54880;50.986;6.990;2022-08-01T14:51:02;4.20;;;1.30;;
68089;SDS011;54880;50.986;6.990;2022-08-01T14:53:30;6.65;;;1.60;;
68089;SDS011;54880;50.986;6.990;2022-08-01T14:56:05;5.83;;;1.40;;
68089;SDS011;54880;50.986;6.990;2022-08-01T14:58:30;5.22;;;1.60;;
68089;SDS011;54880;50.986;6.990;2022-08-01T15:00:55;5.27;;;1.70;;
68089;SDS011;54880;50.986;6.990;2022-08-01T15:03:28;6.07;;;1.70;;
68089;SDS011;54880;50.986;6.990;2022-08-01T15:05:57;5.20;;;1.77;;
68089;SDS011;54880;50.986;6.990;2022-08-01T15:08:43;6.40;;;2.10;;